Kimesville, North Carolina
Current Conditions -  °F | °C
As of 6:55 PM on Friday 19 Dec 2014 (Local Time) from K5W8 Reporting Station
Clear Clear  
Wind Chill: 39°   Ceiling: Unl
Heat Index: 39°   Visibility: 10mi
Dew Point: 31°   Wind: 0mph
Humidity: 74%   Direction: NA
Pressure: 30.16"   Gusts: NA
Location:  35.8814°N, 79.5689°W
Report Text: K5W8 192355Z AUTO 00000KT 10SM CLR 04/00 A3016 RMK AO2 T00381005 10121 20038
Loading
Personal Weather Stations






























Interactive Weather Map New forecast layout! Learn more

10-Day Weather Forecast

Advertisements
Track Severe Weather on mobile